createdAt,value
2018-08-20T00:02:30.288Z,10.03
2018-08-20T00:04:59.935Z,10.67
2018-08-20T00:07:28.089Z,9.47
2018-08-20T00:09:56.276Z,11.70
2018-08-20T00:12:24.420Z,12.10
2018-08-20T00:14:53.408Z,10.57
2018-08-20T00:17:21.636Z,10.47
2018-08-20T00:19:49.780Z,10.40
2018-08-20T00:22:17.967Z,10.37
2018-08-20T00:24:56.213Z,10.67
2018-08-20T00:27:24.412Z,10.90
2018-08-20T00:29:52.615Z,10.37
2018-08-20T00:32:20.767Z,9.97
2018-08-20T00:34:48.951Z,10.60
2018-08-20T00:37:17.124Z,10.57
2018-08-20T00:39:45.292Z,10.23
2018-08-20T00:42:13.556Z,10.30
2018-08-20T00:44:41.700Z,10.40
2018-08-20T00:47:09.852Z,10.77
2018-08-20T00:49:38.309Z,10.20
2018-08-20T00:52:06.450Z,11.17
2018-08-20T00:54:34.612Z,10.30
2018-08-20T00:57:02.799Z,11.90
2018-08-20T00:59:30.943Z,10.17
2018-08-20T01:01:59.101Z,10.77
2018-08-20T01:04:33.967Z,9.60
2018-08-20T01:07:02.147Z,10.97
2018-08-20T01:09:30.317Z,9.73
2018-08-20T01:11:58.496Z,11.57
2018-08-20T01:14:26.662Z,9.60
2018-08-20T01:16:54.828Z,10.70
2018-08-20T01:19:23.007Z,10.30
2018-08-20T01:21:51.192Z,9.93
2018-08-20T01:24:19.367Z,9.70
2018-08-20T01:26:47.552Z,8.80
2018-08-20T01:29:15.719Z,10.93
2018-08-20T01:31:43.949Z,10.80
2018-08-20T01:34:13.200Z,11.30
2018-08-20T01:36:44.241Z,10.60
2018-08-20T01:39:12.400Z,11.10
2018-08-20T01:41:40.585Z,11.33
2018-08-20T01:44:08.848Z,11.20
2018-08-20T01:46:37.127Z,11.33
2018-08-20T01:49:05.359Z,11.63
2018-08-20T01:51:33.563Z,10.23
2018-08-20T01:54:01.740Z,11.20
2018-08-20T01:56:29.912Z,10.30
2018-08-20T01:58:58.159Z,12.10
2018-08-20T02:01:26.365Z,11.50
2018-08-20T02:03:54.547Z,12.03
2018-08-20T02:06:23.188Z,10.63
2018-08-20T02:08:51.343Z,11.57
2018-08-20T02:11:19.713Z,11.90
2018-08-20T02:13:47.900Z,13.70
2018-08-20T02:16:16.061Z,10.97
2018-08-20T02:18:44.236Z,12.80
2018-08-20T02:21:12.407Z,12.60
2018-08-20T02:23:40.579Z,13.10
2018-08-20T02:26:08.771Z,12.40
2018-08-20T02:28:36.959Z,11.53
2018-08-20T02:31:05.313Z,12.77
2018-08-20T02:33:33.471Z,13.00
2018-08-20T02:36:01.677Z,12.10
2018-08-20T02:38:30.012Z,12.50
2018-08-20T02:40:58.269Z,12.97
2018-08-20T02:43:26.421Z,13.43
2018-08-20T02:45:54.604Z,12.43
2018-08-20T02:48:22.763Z,12.40
2018-08-20T02:50:50.928Z,12.17
2018-08-20T02:53:19.241Z,13.60
2018-08-20T02:55:47.409Z,12.00
2018-08-20T02:58:15.584Z,13.80
2018-08-20T03:00:44.006Z,11.90
2018-08-20T03:03:12.190Z,12.40
2018-08-20T03:05:40.340Z,13.57
2018-08-20T03:08:08.592Z,13.27
2018-08-20T03:10:36.725Z,14.07
2018-08-20T03:13:04.871Z,12.93
2018-08-20T03:15:33.068Z,12.87
2018-08-20T03:18:01.226Z,14.07
2018-08-20T03:20:29.398Z,12.93
2018-08-20T03:22:57.609Z,12.40
2018-08-20T03:25:25.821Z,13.43
2018-08-20T03:27:53.989Z,13.00
2018-08-20T03:30:22.166Z,14.43
2018-08-20T03:32:50.521Z,14.70
2018-08-20T03:35:18.675Z,15.13
2018-08-20T03:37:47.049Z,14.30
2018-08-20T03:40:15.219Z,14.33
2018-08-20T03:42:43.441Z,13.30
2018-08-20T03:45:11.907Z,14.80
2018-08-20T03:47:40.088Z,13.40
2018-08-20T03:50:10.700Z,13.90
2018-08-20T03:52:38.846Z,12.20
2018-08-20T03:55:07.752Z,13.30
2018-08-20T03:57:36.331Z,11.80
2018-08-20T04:00:05.071Z,11.00
2018-08-20T04:02:33.197Z,9.37
2018-08-20T04:05:01.438Z,7.57
2018-08-20T04:07:29.552Z,8.07
2018-08-20T04:09:57.726Z,6.03
2018-08-20T04:12:25.946Z,6.47
2018-08-20T04:14:54.085Z,6.37
2018-08-20T04:17:22.255Z,6.00
2018-08-20T04:19:50.424Z,6.60
2018-08-20T04:22:18.630Z,5.90
2018-08-20T04:24:46.788Z,8.43
2018-08-20T04:27:14.979Z,5.87
2018-08-20T04:29:43.212Z,7.47
2018-08-20T04:32:11.392Z,6.70
2018-08-20T04:34:39.554Z,8.70
2018-08-20T04:37:07.870Z,6.90
2018-08-20T04:39:36.039Z,7.70
2018-08-20T04:42:04.274Z,7.37
2018-08-20T04:44:32.393Z,6.10
2018-08-20T04:47:00.645Z,6.40
2018-08-20T04:49:28.803Z,6.00
2018-08-20T04:51:56.953Z,7.30
2018-08-20T04:54:25.204Z,5.50
2018-08-20T04:56:53.406Z,6.10
2018-08-20T04:59:21.571Z,5.33
2018-08-20T05:01:49.772Z,5.47
2018-08-20T05:04:17.995Z,5.83
2018-08-20T05:06:46.151Z,5.70
2018-08-20T05:09:14.339Z,5.43
2018-08-20T05:11:42.563Z,5.20
2018-08-20T05:14:10.755Z,5.23
2018-08-20T05:16:38.935Z,5.47
2018-08-20T05:19:07.904Z,5.03
2018-08-20T05:21:36.042Z,5.20
2018-08-20T05:24:04.263Z,5.30
2018-08-20T05:26:32.433Z,5.90
2018-08-20T05:29:00.648Z,5.20
2018-08-20T05:31:28.828Z,4.50
2018-08-20T05:33:57.027Z,4.97
2018-08-20T05:36:25.184Z,5.73
2018-08-20T05:38:53.372Z,5.37
2018-08-20T05:41:21.556Z,5.57
2018-08-20T05:43:49.720Z,5.63
2018-08-20T05:46:17.914Z,5.70
2018-08-20T05:48:46.209Z,5.03
2018-08-20T05:51:14.424Z,4.93
2018-08-20T05:53:42.600Z,5.37
2018-08-20T05:56:10.825Z,5.17
2018-08-20T05:58:38.980Z,6.40
2018-08-20T06:01:07.221Z,4.87
2018-08-20T06:03:35.393Z,4.63
2018-08-20T06:06:03.565Z,4.53
2018-08-20T06:08:31.774Z,5.37
2018-08-20T06:10:59.973Z,5.00
2018-08-20T06:13:28.163Z,5.20
2018-08-20T06:15:56.607Z,5.40
2018-08-20T06:18:24.914Z,6.27
2018-08-20T06:20:53.148Z,4.30
2018-08-20T06:23:21.415Z,4.67
2018-08-20T06:25:49.616Z,4.80
2018-08-20T06:28:18.003Z,4.20
2018-08-20T06:30:46.233Z,5.20
2018-08-20T06:33:14.420Z,6.03
2018-08-20T06:35:42.891Z,7.90
2018-08-20T06:38:11.097Z,5.13
2018-08-20T06:40:39.267Z,5.90
2018-08-20T06:43:07.663Z,5.33
2018-08-20T06:45:35.884Z,5.00
2018-08-20T06:48:04.085Z,4.87
2018-08-20T06:50:32.374Z,5.37
2018-08-20T06:53:00.535Z,5.80
2018-08-20T06:55:28.805Z,5.70
2018-08-20T06:57:56.977Z,6.17
2018-08-20T07:00:25.140Z,6.70
2018-08-20T07:02:53.313Z,6.17
2018-08-20T07:05:21.520Z,6.20
2018-08-20T07:07:49.715Z,5.70
2018-08-20T07:10:17.927Z,7.37
2018-08-20T07:12:46.570Z,6.50
2018-08-20T07:15:15.698Z,5.70
2018-08-20T07:17:44.156Z,7.00
2018-08-20T07:20:13.795Z,6.40
2018-08-20T07:22:42.121Z,7.47
2018-08-20T07:25:10.294Z,6.43
2018-08-20T07:27:38.839Z,7.57
2018-08-20T07:30:08.380Z,6.70
2018-08-20T07:32:36.602Z,7.10
2018-08-20T07:35:05.293Z,8.00
2018-08-20T07:37:33.483Z,7.60
2018-08-20T07:40:01.650Z,8.90
2018-08-20T07:42:29.898Z,9.63
2018-08-20T07:44:58.029Z,7.30
2018-08-20T07:47:26.228Z,10.73
2018-08-20T07:49:54.463Z,7.43
2018-08-20T07:52:22.668Z,8.40
2018-08-20T07:54:50.848Z,8.23
2018-08-20T07:57:19.029Z,9.63
2018-08-20T07:59:47.203Z,7.73
2018-08-20T08:02:15.374Z,8.60
2018-08-20T08:04:43.740Z,9.90
2018-08-20T08:07:11.965Z,9.40
2018-08-20T08:09:40.123Z,8.90
2018-08-20T08:12:09.370Z,9.00
2018-08-20T08:14:37.577Z,9.10
2018-08-20T08:17:06.249Z,10.33
2018-08-20T08:19:34.612Z,8.90
2018-08-20T08:22:02.808Z,9.33
2018-08-20T08:24:31.271Z,10.00
2018-08-20T08:26:59.483Z,10.10
2018-08-20T08:29:27.689Z,9.13
2018-08-20T08:31:55.881Z,10.73
2018-08-20T08:34:24.317Z,11.10
2018-08-20T08:36:52.502Z,10.07
2018-08-20T08:39:20.715Z,11.10
2018-08-20T08:41:48.952Z,10.40
2018-08-20T08:44:17.134Z,10.30
2018-08-20T08:46:46.727Z,9.83
2018-08-20T08:49:14.949Z,11.17
2018-08-20T08:51:43.095Z,11.47
2018-08-20T08:54:11.268Z,13.70
2018-08-20T08:56:39.485Z,10.87
2018-08-20T08:59:07.692Z,10.03
2018-08-20T09:01:35.940Z,10.53
2018-08-20T09:04:04.151Z,10.03
2018-08-20T09:06:32.396Z,10.90
2018-08-20T09:09:00.769Z,9.40
2018-08-20T09:11:28.927Z,10.70
2018-08-20T09:13:57.409Z,12.23
2018-08-20T09:16:25.589Z,12.47
2018-08-20T09:18:53.881Z,12.63
2018-08-20T09:21:22.077Z,12.53
2018-08-20T09:23:50.262Z,13.00
2018-08-20T09:26:18.465Z,14.20
2018-08-20T09:28:46.685Z,16.10
2018-08-20T09:31:14.936Z,16.30
2018-08-20T09:33:43.075Z,16.03
2018-08-20T09:36:11.333Z,15.70
2018-08-20T09:38:39.490Z,13.97
2018-08-20T09:41:07.760Z,13.80
2018-08-20T09:43:35.954Z,13.63
2018-08-20T09:46:04.513Z,11.83
2018-08-20T09:48:32.778Z,12.07
2018-08-20T09:51:00.955Z,10.83
2018-08-20T09:53:29.495Z,9.43
2018-08-20T09:55:57.700Z,9.03
2018-08-20T09:58:25.883Z,9.43
2018-08-20T10:00:54.081Z,9.27
2018-08-20T10:03:22.282Z,7.60
2018-08-20T10:05:50.463Z,8.07
2018-08-20T10:08:18.637Z,8.67
2018-08-20T10:10:46.858Z,8.20
2018-08-20T10:13:15.090Z,7.60
2018-08-20T10:15:43.264Z,8.37
2018-08-20T10:18:11.502Z,8.23
2018-08-20T10:20:39.683Z,8.10
2018-08-20T10:23:07.860Z,9.83
2018-08-20T10:25:36.443Z,10.07
2018-08-20T10:28:04.733Z,9.00
2018-08-20T10:30:32.903Z,9.17
2018-08-20T10:33:01.153Z,6.90
2018-08-20T10:35:31.047Z,8.57
2018-08-20T10:37:59.299Z,9.30
2018-08-20T10:40:27.422Z,9.67
2018-08-20T10:42:55.593Z,8.77
2018-08-20T10:45:29.214Z,9.60
2018-08-20T10:47:57.406Z,8.20
2018-08-20T10:50:25.604Z,10.27
2018-08-20T10:52:53.862Z,8.60
2018-08-20T10:55:22.032Z,8.83
2018-08-20T10:57:50.346Z,8.97
2018-08-20T11:00:18.647Z,9.00
2018-08-20T11:02:46.845Z,8.97
2018-08-20T11:05:16.709Z,9.03
2018-08-20T11:07:44.886Z,9.90
2018-08-20T11:10:13.141Z,11.80
2018-08-20T11:12:41.274Z,12.83
2018-08-20T11:15:10.699Z,13.53
2018-08-20T11:17:39.086Z,12.80
2018-08-20T11:20:09.547Z,13.40
2018-08-20T11:22:37.744Z,13.50
2018-08-20T11:25:06.895Z,15.47
2018-08-20T11:27:35.136Z,16.90
2018-08-20T11:30:03.889Z,17.60
2018-08-20T11:32:32.044Z,16.50
2018-08-20T11:35:00.229Z,17.27
2018-08-20T11:37:28.392Z,14.90
2018-08-20T11:39:56.596Z,14.37
2018-08-20T11:42:24.827Z,11.60
2018-08-20T11:44:53.007Z,10.47
2018-08-20T11:47:21.201Z,10.17
2018-08-20T11:49:49.498Z,9.70
2018-08-20T11:52:17.648Z,12.20
2018-08-20T11:54:45.862Z,11.47
2018-08-20T11:57:14.064Z,11.10
2018-08-20T11:59:42.222Z,11.80
2018-08-20T12:02:10.409Z,12.17
2018-08-20T12:04:38.591Z,10.70
2018-08-20T12:07:07.139Z,12.43
2018-08-20T12:09:35.257Z,11.23
2018-08-20T12:12:03.477Z,10.27
2018-08-20T12:14:31.907Z,9.33
2018-08-20T12:17:00.111Z,10.20
2018-08-20T12:19:28.328Z,10.80
2018-08-20T12:21:56.660Z,9.90
2018-08-20T12:24:25.549Z,10.00
2018-08-20T12:26:53.783Z,8.50
2018-08-20T12:29:21.946Z,7.57
2018-08-20T12:31:50.161Z,7.03
2018-08-20T12:34:18.376Z,8.80
2018-08-20T12:36:46.576Z,8.63
2018-08-20T12:39:14.889Z,9.13
2018-08-20T12:41:43.104Z,9.07
2018-08-20T12:44:11.307Z,8.70
2018-08-20T12:46:39.513Z,7.77
2018-08-20T12:49:07.704Z,6.40
2018-08-20T12:51:35.907Z,6.07
2018-08-20T12:54:04.100Z,6.70
2018-08-20T12:56:32.347Z,6.70
2018-08-20T12:59:00.566Z,7.00
2018-08-20T13:01:28.802Z,6.10
2018-08-20T13:03:57.013Z,6.43
2018-08-20T13:06:25.202Z,5.53
2018-08-20T13:08:53.489Z,5.73
2018-08-20T13:11:21.621Z,6.40
2018-08-20T13:13:49.808Z,6.33
2018-08-20T13:16:18.311Z,7.97
2018-08-20T13:18:46.427Z,6.70
2018-08-20T13:21:14.684Z,6.50
2018-08-20T13:23:42.889Z,7.63
2018-08-20T13:26:11.053Z,7.70
2018-08-20T13:28:39.290Z,7.30
2018-08-20T13:31:07.525Z,6.80
2018-08-20T13:33:35.708Z,5.47
2018-08-20T13:36:03.896Z,5.73
2018-08-20T13:38:32.149Z,8.67
2018-08-20T13:41:00.341Z,6.43
2018-08-20T13:43:28.518Z,7.53
2018-08-20T13:45:56.752Z,7.40
2018-08-20T13:48:24.951Z,6.50
2018-08-20T13:50:54.417Z,7.23
2018-08-20T13:53:22.619Z,7.33
2018-08-20T13:55:50.859Z,5.70
2018-08-20T13:58:19.101Z,6.50
2018-08-20T14:00:47.285Z,7.60
2018-08-20T14:03:15.563Z,9.03
2018-08-20T14:05:43.768Z,7.77
2018-08-20T14:08:12.590Z,7.80
2018-08-20T14:10:40.874Z,7.40
2018-08-20T14:13:09.095Z,7.13
2018-08-20T14:15:37.395Z,7.77
2018-08-20T14:18:05.827Z,8.43
2018-08-20T14:20:34.255Z,8.00
2018-08-20T14:23:02.640Z,6.70
2018-08-20T14:25:30.863Z,5.10
2018-08-20T14:27:59.170Z,6.03
2018-08-20T14:30:27.406Z,6.40
2018-08-20T14:32:55.625Z,5.40
2018-08-20T14:35:23.903Z,5.30
2018-08-20T14:37:52.101Z,5.00
2018-08-20T14:40:20.402Z,4.80
2018-08-20T14:42:48.597Z,6.30
2018-08-20T14:45:17.164Z,5.37
2018-08-20T14:47:45.879Z,6.80
2018-08-20T14:50:15.890Z,6.63
2018-08-20T14:52:44.083Z,8.20
2018-08-20T14:55:12.863Z,7.73
2018-08-20T14:57:41.105Z,8.83
2018-08-20T15:00:12.193Z,9.20
2018-08-20T15:02:40.377Z,12.20
2018-08-20T15:05:08.909Z,12.80
2018-08-20T15:07:37.358Z,10.63
2018-08-20T15:10:07.045Z,10.70
2018-08-20T15:12:35.202Z,11.10
2018-08-20T15:15:03.550Z,9.67
2018-08-20T15:17:31.706Z,10.27
2018-08-20T15:19:59.913Z,9.07
2018-08-20T15:22:28.172Z,10.63
2018-08-20T15:24:56.369Z,10.30
2018-08-20T15:27:24.531Z,11.27
2018-08-20T15:29:52.799Z,9.60
2018-08-20T15:32:21.012Z,10.40
2018-08-20T15:34:49.256Z,12.50
2018-08-20T15:37:17.495Z,10.03
2018-08-20T15:39:45.696Z,10.63
2018-08-20T15:42:13.887Z,10.93
2018-08-20T15:44:42.217Z,12.73
2018-08-20T15:47:10.417Z,13.03
2018-08-20T15:49:38.599Z,13.80
2018-08-20T15:52:06.863Z,13.73
2018-08-20T15:54:35.056Z,15.80
2018-08-20T15:57:03.222Z,18.37
2018-08-20T15:59:31.488Z,17.00
2018-08-20T16:01:59.673Z,18.20
2018-08-20T16:04:27.863Z,17.37
2018-08-20T16:06:56.071Z,15.60
2018-08-20T16:09:24.252Z,14.93
2018-08-20T16:11:52.519Z,17.23
2018-08-20T16:14:20.700Z,15.33
2018-08-20T16:16:48.902Z,15.87
2018-08-20T16:19:17.234Z,15.10
2018-08-20T16:21:45.426Z,15.47
2018-08-20T16:24:13.672Z,14.03
2018-08-20T16:26:41.885Z,14.50
2018-08-20T16:29:10.113Z,16.50
2018-08-20T16:31:38.332Z,16.40
2018-08-20T16:34:06.643Z,16.63
2018-08-20T16:36:35.397Z,14.30
2018-08-20T16:39:05.044Z,17.07
2018-08-20T16:41:33.302Z,16.40
2018-08-20T16:44:01.501Z,15.30
2018-08-20T16:46:29.675Z,14.10
2018-08-20T16:48:57.913Z,15.70
2018-08-20T16:51:26.187Z,15.17
2018-08-20T16:53:54.380Z,16.97
2018-08-20T16:56:22.617Z,14.30
2018-08-20T16:58:50.812Z,14.70
2018-08-20T17:01:19.755Z,16.20
2018-08-20T17:03:47.990Z,16.20
2018-08-20T17:06:16.190Z,14.17
2018-08-20T17:08:45.478Z,13.90
2018-08-20T17:11:20.141Z,13.00
2018-08-20T17:13:48.398Z,15.47
2018-08-20T17:16:16.655Z,12.83
2018-08-20T17:18:44.899Z,13.87
2018-08-20T17:21:13.129Z,12.43
2018-08-20T17:23:41.352Z,11.63
2018-08-20T17:26:09.558Z,14.73
2018-08-20T17:28:37.847Z,11.70
2018-08-20T17:31:08.554Z,11.83
2018-08-20T17:33:36.716Z,12.47
2018-08-20T17:36:07.293Z,12.20
2018-08-20T17:38:35.515Z,13.67
2018-08-20T17:41:03.836Z,12.47
2018-08-20T17:43:32.076Z,11.20
2018-08-20T17:46:00.480Z,11.53
2018-08-20T17:48:31.878Z,12.20
2018-08-20T17:51:00.446Z,11.20
2018-08-20T17:53:40.517Z,10.73
2018-08-20T17:56:08.800Z,9.73
2018-08-20T17:58:36.973Z,9.70
2018-08-20T18:01:05.469Z,9.33
2018-08-20T18:03:34.570Z,9.70
2018-08-20T18:06:04.755Z,8.23
2018-08-20T18:08:33.810Z,8.43
2018-08-20T18:11:02.452Z,8.17
2018-08-20T18:13:42.637Z,7.87
2018-08-20T18:16:12.158Z,7.87
2018-08-20T18:18:41.882Z,8.17
2018-08-20T18:21:10.212Z,7.60
2018-08-20T18:23:38.809Z,7.60
2018-08-20T18:26:07.276Z,7.10
2018-08-20T18:28:41.721Z,6.00
2018-08-20T18:31:12.239Z,5.70
2018-08-20T18:33:41.301Z,5.93
2018-08-20T18:36:14.121Z,6.30
2018-08-20T18:38:48.145Z,5.70
2018-08-20T18:41:16.452Z,5.93
2018-08-20T18:43:45.161Z,6.30
2018-08-20T18:46:13.470Z,6.60
2018-08-20T18:48:42.140Z,6.40
2018-08-20T18:51:13.569Z,6.30
2018-08-20T18:53:42.177Z,6.13
2018-08-20T18:56:12.505Z,5.97
2018-08-20T18:58:41.400Z,6.47
2018-08-20T19:01:10.169Z,6.10
2018-08-20T19:03:44.788Z,6.53
2018-08-20T19:06:13.859Z,7.77
2018-08-20T19:08:42.746Z,7.20
2018-08-20T19:11:12.509Z,6.10
2018-08-20T19:13:41.401Z,5.90
2018-08-20T19:16:42.775Z,7.40
2018-08-20T19:19:11.193Z,7.20
2018-08-20T19:21:41.255Z,7.37
2018-08-20T19:24:10.198Z,6.50
2018-08-20T19:26:38.673Z,7.30
2018-08-20T19:29:23.815Z,7.00
2018-08-20T19:31:52.482Z,8.23
2018-08-20T19:34:20.966Z,7.00
2018-08-20T19:36:49.450Z,7.30
2018-08-20T19:39:18.050Z,6.87
2018-08-20T19:41:46.634Z,6.40
2018-08-20T19:44:14.961Z,6.30
2018-08-20T19:46:43.307Z,7.00
2018-08-20T19:49:15.007Z,6.83
2018-08-20T19:51:44.780Z,7.03
2018-08-20T19:54:14.682Z,6.47
2018-08-20T19:56:43.140Z,6.00
2018-08-20T19:59:11.946Z,6.30
2018-08-20T20:01:40.213Z,6.37
2018-08-20T20:04:13.416Z,6.33
2018-08-20T20:06:42.266Z,6.50
2018-08-20T20:09:11.212Z,6.13
2018-08-20T20:11:44.497Z,5.80
2018-08-20T20:14:13.296Z,5.47
2018-08-20T20:16:47.295Z,5.97
2018-08-20T20:19:15.630Z,5.30
2018-08-20T20:21:43.929Z,6.27
2018-08-20T20:24:12.886Z,7.13
2018-08-20T20:26:41.420Z,6.10
2018-08-20T20:29:10.596Z,5.30
2018-08-20T20:31:39.839Z,6.13
2018-08-20T20:34:08.212Z,6.47
2018-08-20T20:36:36.485Z,6.30
2018-08-20T20:39:08.449Z,6.07
2018-08-20T20:41:36.656Z,7.00
2018-08-20T20:44:05.270Z,7.20
2018-08-20T20:46:33.680Z,7.17
2018-08-20T20:49:02.083Z,6.37
2018-08-20T20:51:30.519Z,6.37
2018-08-20T20:53:58.845Z,6.93
2018-08-20T20:56:27.040Z,9.00
2018-08-20T20:58:55.260Z,6.40
2018-08-20T21:01:23.485Z,5.63
2018-08-20T21:03:51.652Z,6.20
2018-08-20T21:06:19.844Z,6.50
2018-08-20T21:08:50.884Z,6.50
2018-08-20T21:11:20.353Z,5.63
2018-08-20T21:13:48.708Z,5.50
2018-08-20T21:16:20.057Z,6.47
2018-08-20T21:18:50.226Z,5.80
2018-08-20T21:21:19.008Z,6.37
2018-08-20T21:23:47.241Z,5.53
2018-08-20T21:26:15.456Z,6.33
2018-08-20T21:28:51.240Z,5.60
2018-08-20T21:31:20.732Z,6.83
2018-08-20T21:33:52.742Z,6.90
2018-08-20T21:36:20.968Z,6.40
2018-08-20T21:38:49.157Z,5.87
2018-08-20T21:41:18.950Z,7.07
2018-08-20T21:43:48.213Z,6.40
2018-08-20T21:46:16.739Z,6.43
2018-08-20T21:48:45.400Z,6.23
2018-08-20T21:51:22.075Z,7.40
2018-08-20T21:53:50.395Z,6.30
2018-08-20T21:56:18.651Z,5.87
2018-08-20T21:58:46.849Z,6.90
2018-08-20T22:01:16.132Z,6.17
2018-08-20T22:03:44.684Z,6.57
2018-08-20T22:06:13.307Z,6.67
2018-08-20T22:08:41.675Z,6.73
2018-08-20T22:11:10.528Z,6.13
2018-08-20T22:13:38.932Z,5.50
2018-08-20T22:16:17.015Z,8.07
2018-08-20T22:18:46.424Z,7.60
2018-08-20T22:21:15.861Z,6.23
2018-08-20T22:23:44.738Z,7.13
2018-08-20T22:26:17.173Z,7.20
2018-08-20T22:28:45.508Z,6.40
2018-08-20T22:31:13.684Z,6.33
2018-08-20T22:33:41.860Z,6.13
2018-08-20T22:36:12.765Z,7.13
2018-08-20T22:38:49.182Z,5.87
2018-08-20T22:41:18.695Z,6.50
2018-08-20T22:43:46.907Z,5.90
2018-08-20T22:46:15.071Z,6.77
2018-08-20T22:48:43.265Z,7.60
2018-08-20T22:51:17.565Z,7.30
2018-08-20T22:53:48.815Z,6.60
2018-08-20T22:56:24.472Z,6.20
2018-08-20T22:58:54.936Z,6.93
2018-08-20T23:01:23.076Z,5.10
2018-08-20T23:03:51.539Z,5.87
2018-08-20T23:06:19.888Z,5.70
2018-08-20T23:08:48.053Z,5.97
2018-08-20T23:11:26.452Z,6.13
2018-08-20T23:13:54.636Z,6.23
2018-08-20T23:16:22.811Z,6.70
2018-08-20T23:18:51.562Z,6.40
2018-08-20T23:21:20.208Z,8.30
2018-08-20T23:23:48.423Z,7.23
2018-08-20T23:26:16.655Z,6.73
2018-08-20T23:28:44.809Z,7.70
2018-08-20T23:31:13.715Z,7.67
2018-08-20T23:33:41.942Z,8.17
2018-08-20T23:36:10.172Z,7.57
2018-08-20T23:38:38.371Z,5.50
2018-08-20T23:41:06.694Z,6.03
2018-08-20T23:43:34.840Z,6.13
2018-08-20T23:46:03.103Z,6.10
2018-08-20T23:48:31.329Z,6.43
2018-08-20T23:51:06.451Z,7.00
2018-08-20T23:53:34.648Z,6.73
2018-08-20T23:56:02.860Z,7.13
2018-08-20T23:58:31.061Z,5.90
